createdAt,value
2022-11-16T00:02:19.682Z,100.00
2022-11-16T00:04:46.104Z,100.00
2022-11-16T00:07:12.524Z,100.00
2022-11-16T00:09:39.134Z,100.00
2022-11-16T00:12:07.449Z,100.00
2022-11-16T00:14:35.616Z,100.00
2022-11-16T00:17:02.900Z,100.00
2022-11-16T00:19:29.707Z,100.00
2022-11-16T00:21:56.452Z,100.00
2022-11-16T00:24:23.897Z,100.00
2022-11-16T00:26:53.388Z,100.00
2022-11-16T00:29:22.613Z,100.00
2022-11-16T00:31:49.846Z,100.00
2022-11-16T00:34:16.886Z,100.00
2022-11-16T00:36:43.660Z,100.00
2022-11-16T00:39:14.631Z,100.00
2022-11-16T00:41:42.466Z,100.00
2022-11-16T00:44:09.931Z,100.00
2022-11-16T00:46:36.278Z,100.00
2022-11-16T00:49:03.247Z,100.00
2022-11-16T00:51:29.611Z,100.00
2022-11-16T00:53:56.054Z,100.00
2022-11-16T00:56:22.798Z,100.00
2022-11-16T00:58:49.420Z,100.00
2022-11-16T01:01:16.022Z,100.00
2022-11-16T01:03:42.460Z,100.00
2022-11-16T01:06:11.024Z,100.00
2022-11-16T01:08:39.134Z,100.00
2022-11-16T01:11:07.017Z,100.00
2022-11-16T01:13:33.564Z,100.00
2022-11-16T01:15:59.918Z,100.00
2022-11-16T01:18:26.339Z,100.00
2022-11-16T01:20:52.793Z,100.00
2022-11-16T01:23:19.277Z,100.00
2022-11-16T01:25:45.704Z,100.00
2022-11-16T01:28:12.099Z,100.00
2022-11-16T01:30:38.523Z,100.00
2022-11-16T01:33:04.920Z,100.00
2022-11-16T01:35:31.398Z,100.00
2022-11-16T01:37:57.838Z,100.00
2022-11-16T01:40:27.530Z,100.00
2022-11-16T01:42:53.891Z,100.00
2022-11-16T01:45:40.414Z,100.00
2022-11-16T01:48:07.680Z,100.00
2022-11-16T01:50:34.777Z,100.00
2022-11-16T01:53:04.212Z,100.00
2022-11-16T01:55:33.219Z,100.00
2022-11-16T01:58:00.874Z,100.00
2022-11-16T02:00:27.356Z,100.00
2022-11-16T02:02:53.912Z,100.00
2022-11-16T02:05:28.871Z,100.00
2022-11-16T02:08:20.960Z,100.00
2022-11-16T02:10:59.200Z,100.00
2022-11-16T02:13:42.306Z,100.00
2022-11-16T02:16:40.186Z,100.00
2022-11-16T02:19:43.762Z,100.00
2022-11-16T02:22:41.133Z,100.00
2022-11-16T02:25:30.508Z,100.00
2022-11-16T02:28:24.849Z,100.00
2022-11-16T02:30:54.102Z,100.00
2022-11-16T02:33:26.523Z,100.00
2022-11-16T02:35:56.960Z,100.00
2022-11-16T02:38:29.982Z,100.00
2022-11-16T02:41:03.006Z,100.00
2022-11-16T02:43:38.200Z,100.00
2022-11-16T02:46:10.786Z,100.00
2022-11-16T02:48:43.780Z,100.00
2022-11-16T02:51:11.453Z,100.00
2022-11-16T02:53:43.048Z,100.00
2022-11-16T02:56:13.346Z,100.00
2022-11-16T02:58:39.902Z,100.00
2022-11-16T03:01:12.979Z,100.00
2022-11-16T03:04:02.607Z,100.00
2022-11-16T03:06:33.022Z,100.00
2022-11-16T03:09:09.187Z,100.00
2022-11-16T03:11:41.935Z,100.00
2022-11-16T03:14:14.479Z,100.00
2022-11-16T03:16:47.441Z,100.00
2022-11-16T03:19:18.344Z,100.00
2022-11-16T03:21:51.994Z,100.00
2022-11-16T03:24:19.348Z,100.00
2022-11-16T03:27:18.532Z,100.00
2022-11-16T03:29:59.857Z,100.00
2022-11-16T03:32:57.180Z,100.00
2022-11-16T03:35:38.710Z,100.00
2022-11-16T03:38:08.156Z,100.00
2022-11-16T03:40:37.154Z,100.00
2022-11-16T03:43:06.610Z,100.00
2022-11-16T03:45:33.320Z,100.00
2022-11-16T03:48:00.352Z,100.00
2022-11-16T03:50:26.954Z,100.00
2022-11-16T03:52:53.367Z,100.00
2022-11-16T03:55:19.768Z,100.00
2022-11-16T03:57:46.152Z,100.00
2022-11-16T04:00:12.947Z,100.00
2022-11-16T04:02:39.367Z,100.00
2022-11-16T04:05:05.927Z,100.00
2022-11-16T04:07:32.410Z,100.00
2022-11-16T04:09:58.929Z,100.00
2022-11-16T04:12:25.359Z,100.00
2022-11-16T04:14:51.929Z,100.00
2022-11-16T04:17:19.364Z,100.00
2022-11-16T04:19:45.807Z,100.00
2022-11-16T04:22:25.858Z,100.00
2022-11-16T04:24:56.860Z,100.00
2022-11-16T04:27:29.721Z,100.00
2022-11-16T04:29:58.594Z,100.00
2022-11-16T04:32:25.331Z,100.00
2022-11-16T04:34:51.883Z,100.00
2022-11-16T04:37:19.179Z,100.00
2022-11-16T04:39:45.600Z,100.00
2022-11-16T04:42:16.991Z,100.00
2022-11-16T04:44:43.423Z,100.00
2022-11-16T04:47:09.832Z,100.00
2022-11-16T04:49:36.331Z,100.00
2022-11-16T04:52:02.957Z,100.00
2022-11-16T04:54:29.375Z,100.00
2022-11-16T04:56:55.892Z,100.00
2022-11-16T04:59:22.340Z,100.00
2022-11-16T05:01:48.832Z,100.00
2022-11-16T05:04:15.333Z,100.00
2022-11-16T05:06:41.771Z,100.00
2022-11-16T05:09:08.213Z,100.00
2022-11-16T05:11:34.669Z,100.00
2022-11-16T05:14:01.120Z,100.00
2022-11-16T05:16:27.594Z,100.00
2022-11-16T05:18:54.182Z,100.00
2022-11-16T05:21:20.655Z,100.00
2022-11-16T05:23:48.312Z,100.00
2022-11-16T05:26:14.843Z,100.00
2022-11-16T05:28:41.275Z,100.00
2022-11-16T05:31:08.863Z,100.00
2022-11-16T05:33:35.329Z,100.00
2022-11-16T05:36:01.794Z,100.00
2022-11-16T05:38:28.250Z,100.00
2022-11-16T05:40:54.648Z,100.00
2022-11-16T05:43:21.115Z,100.00
2022-11-16T05:45:47.510Z,100.00
2022-11-16T05:48:13.979Z,100.00
2022-11-16T05:50:42.925Z,100.00
2022-11-16T05:53:09.576Z,100.00
2022-11-16T05:55:36.127Z,100.00
2022-11-16T05:58:02.566Z,100.00
2022-11-16T06:00:28.998Z,100.00
2022-11-16T06:02:55.625Z,100.00
2022-11-16T06:05:22.151Z,100.00
2022-11-16T06:07:48.500Z,100.00
2022-11-16T06:10:15.011Z,100.00
2022-11-16T06:12:41.452Z,100.00
2022-11-16T06:15:08.061Z,100.00
2022-11-16T06:17:34.390Z,100.00
2022-11-16T06:20:00.756Z,100.00
2022-11-16T06:22:27.133Z,100.00
2022-11-16T06:24:53.518Z,100.00
2022-11-16T06:27:20.063Z,100.00
2022-11-16T06:29:46.439Z,100.00
2022-11-16T06:32:12.878Z,100.00
2022-11-16T06:34:39.256Z,100.00
2022-11-16T06:37:05.813Z,100.00
2022-11-16T06:39:32.176Z,100.00
2022-11-16T06:41:58.590Z,100.00
2022-11-16T06:44:25.043Z,100.00
2022-11-16T06:46:51.512Z,100.00
2022-11-16T06:49:17.927Z,100.00
2022-11-16T06:51:44.353Z,100.00
2022-11-16T06:54:10.694Z,100.00
2022-11-16T06:56:37.106Z,100.00
2022-11-16T06:59:03.665Z,100.00
2022-11-16T07:01:30.102Z,100.00
2022-11-16T07:03:57.159Z,100.00
2022-11-16T07:06:24.956Z,100.00
2022-11-16T07:08:51.445Z,100.00
2022-11-16T07:11:17.869Z,100.00
2022-11-16T07:13:44.294Z,100.00
2022-11-16T07:16:12.059Z,100.00
2022-11-16T07:18:40.281Z,100.00
2022-11-16T07:21:08.911Z,100.00
2022-11-16T07:23:36.060Z,100.00
2022-11-16T07:26:04.410Z,100.00
2022-11-16T07:28:31.778Z,100.00
2022-11-16T07:31:02.817Z,100.00
2022-11-16T07:33:29.590Z,100.00
2022-11-16T07:36:01.262Z,100.00
2022-11-16T07:38:27.896Z,100.00
2022-11-16T07:40:54.351Z,100.00
2022-11-16T07:43:20.723Z,100.00
2022-11-16T07:45:47.180Z,100.00
2022-11-16T07:48:13.528Z,100.00
2022-11-16T07:50:39.944Z,100.00
2022-11-16T07:53:06.390Z,100.00
2022-11-16T07:55:32.823Z,100.00
2022-11-16T07:57:59.244Z,100.00
2022-11-16T08:00:25.822Z,100.00
2022-11-16T08:02:52.211Z,100.00
2022-11-16T08:05:18.583Z,100.00
2022-11-16T08:07:45.031Z,100.00
2022-11-16T08:10:11.571Z,100.00
2022-11-16T08:12:38.030Z,100.00
2022-11-16T08:15:04.617Z,100.00
2022-11-16T08:17:31.044Z,100.00
2022-11-16T08:19:57.473Z,100.00
2022-11-16T08:22:23.868Z,100.00
2022-11-16T08:24:50.338Z,100.00
2022-11-16T08:27:16.830Z,100.00
2022-11-16T08:29:43.222Z,100.00
2022-11-16T08:32:09.645Z,100.00
2022-11-16T08:34:36.040Z,100.00
2022-11-16T08:37:02.440Z,100.00
2022-11-16T08:39:28.800Z,100.00
2022-11-16T08:41:55.183Z,100.00
2022-11-16T08:44:21.642Z,100.00
2022-11-16T08:46:48.070Z,100.00
2022-11-16T08:49:14.584Z,100.00
2022-11-16T08:51:41.086Z,100.00
2022-11-16T08:54:07.462Z,100.00
2022-11-16T08:56:34.291Z,100.00
2022-11-16T08:59:00.734Z,100.00
2022-11-16T09:01:29.419Z,100.00
2022-11-16T09:03:56.372Z,100.00
2022-11-16T09:06:24.946Z,100.00
2022-11-16T09:08:51.963Z,100.00
2022-11-16T09:11:21.862Z,100.00
2022-11-16T09:13:49.612Z,100.00
2022-11-16T09:16:17.044Z,100.00
2022-11-16T09:18:44.499Z,100.00
2022-11-16T09:21:10.929Z,100.00
2022-11-16T09:23:37.310Z,100.00
2022-11-16T09:26:05.409Z,100.00
2022-11-16T09:28:32.014Z,100.00
2022-11-16T09:31:01.604Z,100.00
2022-11-16T09:33:30.003Z,100.00
2022-11-16T09:36:00.557Z,100.00
2022-11-16T09:38:40.174Z,100.00
2022-11-16T09:41:13.277Z,100.00
2022-11-16T09:43:50.049Z,100.00
2022-11-16T09:46:34.459Z,100.00
2022-11-16T09:49:04.955Z,97.58
2022-11-16T09:51:38.735Z,95.87
2022-11-16T09:54:08.518Z,96.63
2022-11-16T09:56:40.276Z,97.93
2022-11-16T09:59:18.413Z,100.00
2022-11-16T10:01:52.502Z,100.00
2022-11-16T10:04:40.381Z,97.83
2022-11-16T10:07:20.021Z,92.36
2022-11-16T10:09:47.359Z,92.56
2022-11-16T10:12:28.320Z,90.97
2022-11-16T10:15:06.839Z,89.40
2022-11-16T10:17:51.459Z,91.29
2022-11-16T10:20:29.212Z,90.25
2022-11-16T10:23:13.459Z,89.93
2022-11-16T10:25:44.671Z,88.71
2022-11-16T10:28:36.685Z,90.52
2022-11-16T10:31:13.808Z,91.79
2022-11-16T10:33:43.312Z,88.74
2022-11-16T10:36:14.726Z,90.04
2022-11-16T10:38:42.944Z,89.58
2022-11-16T10:41:27.875Z,87.07
2022-11-16T10:43:57.733Z,88.06
2022-11-16T10:46:36.321Z,90.53
2022-11-16T10:49:26.812Z,88.52
2022-11-16T10:51:53.175Z,88.31
2022-11-16T10:54:19.510Z,87.30
2022-11-16T10:56:49.334Z,86.37
2022-11-16T10:59:19.004Z,87.74
2022-11-16T11:01:48.351Z,87.00
2022-11-16T11:04:17.335Z,86.41
2022-11-16T11:06:45.064Z,84.76
2022-11-16T11:09:32.987Z,84.94
2022-11-16T11:12:21.947Z,85.27
2022-11-16T11:14:58.746Z,85.24
2022-11-16T11:17:25.265Z,86.81
2022-11-16T11:20:00.142Z,86.37
2022-11-16T11:22:27.247Z,84.86
2022-11-16T11:24:54.071Z,86.32
2022-11-16T11:27:31.364Z,85.40
2022-11-16T11:29:58.591Z,86.52
2022-11-16T11:32:32.777Z,89.47
2022-11-16T11:34:59.432Z,89.21
2022-11-16T11:37:33.922Z,91.29
2022-11-16T11:40:17.690Z,90.41
2022-11-16T11:42:58.861Z,88.17
2022-11-16T11:45:29.227Z,88.94
2022-11-16T11:48:31.344Z,89.50
2022-11-16T11:51:00.965Z,90.00
2022-11-16T11:53:27.279Z,88.22
2022-11-16T11:55:58.695Z,84.63
2022-11-16T11:58:29.812Z,85.63
2022-11-16T12:01:24.891Z,87.88
2022-11-16T12:04:21.031Z,86.76
2022-11-16T12:06:59.004Z,85.14
2022-11-16T12:09:33.622Z,84.92
2022-11-16T12:12:19.188Z,86.39
2022-11-16T12:15:06.727Z,85.89
2022-11-16T12:17:51.413Z,85.93
2022-11-16T12:20:34.069Z,85.95
2022-11-16T12:23:15.851Z,85.73
2022-11-16T12:26:07.504Z,86.54
2022-11-16T12:29:23.793Z,86.53
2022-11-16T12:32:07.723Z,86.08
2022-11-16T12:35:04.110Z,87.99
2022-11-16T12:37:44.723Z,87.32
2022-11-16T12:40:56.423Z,87.10
2022-11-16T12:43:35.294Z,85.74
2022-11-16T12:46:33.482Z,85.23
2022-11-16T12:49:05.762Z,84.19
2022-11-16T12:51:34.873Z,85.03
2022-11-16T12:54:25.553Z,84.63
2022-11-16T12:57:04.234Z,84.42
2022-11-16T12:59:57.378Z,84.47
2022-11-16T13:03:01.365Z,84.97
2022-11-16T13:06:03.621Z,83.79
2022-11-16T13:09:01.204Z,85.42
2022-11-16T13:11:32.394Z,86.67
2022-11-16T13:14:04.040Z,86.85
2022-11-16T13:16:30.579Z,87.66
2022-11-16T13:18:59.160Z,87.88
2022-11-16T13:21:38.968Z,88.32
2022-11-16T13:24:27.134Z,87.65
2022-11-16T13:27:05.307Z,88.51
2022-11-16T13:29:37.970Z,88.02
2022-11-16T13:32:13.690Z,88.40
2022-11-16T13:34:41.185Z,89.19
2022-11-16T13:37:39.013Z,88.75
2022-11-16T13:40:05.299Z,87.97
2022-11-16T13:42:38.848Z,87.81
2022-11-16T13:45:32.057Z,87.87
2022-11-16T13:47:59.917Z,86.84
2022-11-16T13:50:37.436Z,86.73
2022-11-16T13:53:57.587Z,87.91
2022-11-16T13:55:58.842Z,86.83
2022-11-16T13:58:26.985Z,86.62
2022-11-16T14:01:06.403Z,86.72
2022-11-16T14:03:41.333Z,87.84
2022-11-16T14:06:13.780Z,87.69
2022-11-16T14:08:40.039Z,88.27
2022-11-16T14:11:39.501Z,87.42
2022-11-16T14:14:12.258Z,88.83
2022-11-16T14:16:44.584Z,88.26
2022-11-16T14:19:45.205Z,87.82
2022-11-16T14:22:56.056Z,86.98
2022-11-16T14:25:44.371Z,87.69
2022-11-16T14:28:23.561Z,87.90
2022-11-16T14:31:00.925Z,88.91
2022-11-16T14:33:36.110Z,88.53
2022-11-16T14:36:06.028Z,88.43
2022-11-16T14:38:36.492Z,87.40
2022-11-16T14:41:06.212Z,87.81
2022-11-16T14:43:41.440Z,88.09
2022-11-16T14:46:17.102Z,88.50
2022-11-16T14:48:45.772Z,89.14
2022-11-16T14:51:21.603Z,90.00
2022-11-16T14:53:54.953Z,90.62
2022-11-16T14:56:21.784Z,91.78
2022-11-16T14:58:56.760Z,91.64
2022-11-16T15:01:27.634Z,92.53
2022-11-16T15:04:21.177Z,92.90
2022-11-16T15:06:58.534Z,92.97
2022-11-16T15:09:29.663Z,92.96
2022-11-16T15:11:57.530Z,92.60
2022-11-16T15:14:31.485Z,92.90
2022-11-16T15:17:02.250Z,92.78
2022-11-16T15:19:30.185Z,92.49
2022-11-16T15:22:01.116Z,92.34
2022-11-16T15:24:34.862Z,92.06
2022-11-16T15:27:07.212Z,91.95
2022-11-16T15:29:36.564Z,92.24
2022-11-16T15:32:03.597Z,92.51
2022-11-16T15:34:31.095Z,92.58
2022-11-16T15:36:57.538Z,92.68
2022-11-16T15:39:30.248Z,93.04
2022-11-16T15:42:03.234Z,93.30
2022-11-16T15:44:30.650Z,93.49
2022-11-16T15:46:57.258Z,93.66
2022-11-16T15:49:33.342Z,94.15
2022-11-16T15:52:00.375Z,94.21
2022-11-16T15:54:31.357Z,94.63
2022-11-16T15:57:09.717Z,94.14
2022-11-16T15:59:37.099Z,93.96
2022-11-16T16:02:04.135Z,93.72
2022-11-16T16:04:31.012Z,93.68
2022-11-16T16:06:59.491Z,93.71
2022-11-16T16:09:36.305Z,93.68
2022-11-16T16:12:23.642Z,93.50
2022-11-16T16:14:52.313Z,93.22
2022-11-16T16:17:27.305Z,92.87
2022-11-16T16:20:05.778Z,93.17
2022-11-16T16:22:35.350Z,93.49
2022-11-16T16:25:02.163Z,93.58
2022-11-16T16:27:30.915Z,93.75
2022-11-16T16:30:03.442Z,93.75
2022-11-16T16:32:32.581Z,93.67
2022-11-16T16:35:01.010Z,93.05
2022-11-16T16:37:29.444Z,93.82
2022-11-16T16:39:56.344Z,93.19
2022-11-16T16:42:22.764Z,92.86
2022-11-16T16:44:49.212Z,92.76
2022-11-16T16:47:17.119Z,92.84
2022-11-16T16:49:43.648Z,92.34
2022-11-16T16:52:12.257Z,92.64
2022-11-16T16:54:38.587Z,92.59
2022-11-16T16:57:04.957Z,92.80
2022-11-16T16:59:31.370Z,93.07
2022-11-16T17:01:58.527Z,93.28
2022-11-16T17:04:25.298Z,93.30
2022-11-16T17:06:52.818Z,93.41
2022-11-16T17:09:19.271Z,92.74
2022-11-16T17:11:46.971Z,93.19
2022-11-16T17:14:13.410Z,93.52
2022-11-16T17:16:40.085Z,93.46
2022-11-16T17:19:06.441Z,93.28
2022-11-16T17:21:32.771Z,93.53
2022-11-16T17:23:59.134Z,93.02
2022-11-16T17:26:25.461Z,93.15
2022-11-16T17:28:57.641Z,92.35
2022-11-16T17:31:24.629Z,92.68
2022-11-16T17:33:51.216Z,93.01
2022-11-16T17:36:18.014Z,92.95
2022-11-16T17:38:44.646Z,92.99
2022-11-16T17:41:16.953Z,93.30
2022-11-16T17:43:44.692Z,93.24
2022-11-16T17:46:13.775Z,92.88
2022-11-16T17:48:41.573Z,92.80
2022-11-16T17:51:08.969Z,93.68
2022-11-16T17:53:36.357Z,93.02
2022-11-16T17:56:03.956Z,92.94
2022-11-16T17:58:30.961Z,93.31
2022-11-16T18:00:58.003Z,93.33
2022-11-16T18:03:25.000Z,93.63
2022-11-16T18:05:51.852Z,92.87
2022-11-16T18:08:18.212Z,93.22
2022-11-16T18:10:44.569Z,93.58
2022-11-16T18:13:10.938Z,93.31
2022-11-16T18:15:42.102Z,93.21
2022-11-16T18:18:08.954Z,93.55
2022-11-16T18:20:37.009Z,93.57
2022-11-16T18:23:04.608Z,93.31
2022-11-16T18:25:34.167Z,93.44
2022-11-16T18:28:00.583Z,93.30
2022-11-16T18:30:26.921Z,93.44
2022-11-16T18:32:53.320Z,93.38
2022-11-16T18:35:19.669Z,92.93
2022-11-16T18:37:47.162Z,93.09
2022-11-16T18:40:13.800Z,92.73
2022-11-16T18:42:40.230Z,92.29
2022-11-16T18:45:07.352Z,92.58
2022-11-16T18:47:34.348Z,92.43
2022-11-16T18:50:00.683Z,92.83
2022-11-16T18:52:27.101Z,92.78
2022-11-16T18:54:53.404Z,92.19
2022-11-16T18:57:19.740Z,92.23
2022-11-16T18:59:46.039Z,92.50
2022-11-16T19:02:12.478Z,92.92
2022-11-16T19:04:38.928Z,93.55
2022-11-16T19:07:05.360Z,93.92
2022-11-16T19:09:31.707Z,94.85
2022-11-16T19:11:58.235Z,95.12
2022-11-16T19:14:24.663Z,94.93
2022-11-16T19:16:56.694Z,95.14
2022-11-16T19:19:23.599Z,94.47
2022-11-16T19:21:49.918Z,94.72
2022-11-16T19:24:16.278Z,95.09
2022-11-16T19:26:42.610Z,95.11
2022-11-16T19:29:08.980Z,95.05
2022-11-16T19:31:35.319Z,94.55
2022-11-16T19:34:04.764Z,94.59
2022-11-16T19:36:32.643Z,94.33
2022-11-16T19:38:59.325Z,94.28
2022-11-16T19:41:26.488Z,93.96
2022-11-16T19:43:54.570Z,93.91
2022-11-16T19:46:20.882Z,93.70
2022-11-16T19:48:47.430Z,93.40
2022-11-16T19:51:16.782Z,93.34
2022-11-16T19:53:43.189Z,92.96
2022-11-16T19:56:14.768Z,92.78
2022-11-16T19:58:41.778Z,92.07
2022-11-16T20:01:11.937Z,92.13
2022-11-16T20:03:38.933Z,92.37
2022-11-16T20:06:11.415Z,92.68
2022-11-16T20:08:39.386Z,92.66
2022-11-16T20:11:23.165Z,91.81
2022-11-16T20:13:51.554Z,92.08
2022-11-16T20:16:19.219Z,91.75
2022-11-16T20:18:46.480Z,91.85
2022-11-16T20:21:35.759Z,92.54
2022-11-16T20:24:06.721Z,92.16
2022-11-16T20:26:35.201Z,91.85
2022-11-16T20:29:01.532Z,92.20
2022-11-16T20:31:32.632Z,92.33
2022-11-16T20:34:04.623Z,92.18
2022-11-16T20:36:32.814Z,91.87
2022-11-16T20:39:00.220Z,91.67
2022-11-16T20:41:31.041Z,91.77
2022-11-16T20:44:00.578Z,91.23
2022-11-16T20:46:29.365Z,91.48
2022-11-16T20:48:56.595Z,91.89
2022-11-16T20:51:23.259Z,92.12
2022-11-16T20:53:50.209Z,91.90
2022-11-16T20:56:18.110Z,92.12
2022-11-16T20:58:44.927Z,91.85
2022-11-16T21:01:14.651Z,92.09
2022-11-16T21:03:41.427Z,92.55
2022-11-16T21:06:08.104Z,92.20
2022-11-16T21:08:35.467Z,91.94
2022-11-16T21:11:02.327Z,92.71
2022-11-16T21:13:28.684Z,93.19
2022-11-16T21:15:56.713Z,92.47
2022-11-16T21:18:29.328Z,92.95
2022-11-16T21:21:00.449Z,92.93
2022-11-16T21:23:28.761Z,92.58
2022-11-16T21:25:55.132Z,92.23
2022-11-16T21:28:25.507Z,92.39
2022-11-16T21:30:56.673Z,91.81
2022-11-16T21:33:23.306Z,92.04
2022-11-16T21:35:49.816Z,92.20
2022-11-16T21:38:16.192Z,92.04
2022-11-16T21:40:43.837Z,91.57
2022-11-16T21:43:10.167Z,91.80
2022-11-16T21:45:36.510Z,92.24
2022-11-16T21:48:02.994Z,92.27
2022-11-16T21:50:31.925Z,91.86
2022-11-16T21:52:59.630Z,91.68
2022-11-16T21:55:26.564Z,91.66
2022-11-16T21:57:52.941Z,91.29
2022-11-16T22:00:19.698Z,90.74
2022-11-16T22:02:46.033Z,90.87
2022-11-16T22:05:12.433Z,90.59
2022-11-16T22:07:40.849Z,90.75
2022-11-16T22:10:11.868Z,90.42
2022-11-16T22:12:38.875Z,90.66
2022-11-16T22:15:06.934Z,90.88
2022-11-16T22:17:33.300Z,90.87
2022-11-16T22:19:59.647Z,90.97
2022-11-16T22:22:26.042Z,91.10
2022-11-16T22:24:52.409Z,91.02
2022-11-16T22:27:19.113Z,91.71
2022-11-16T22:29:45.419Z,91.66
2022-11-16T22:32:11.720Z,91.94
2022-11-16T22:34:38.066Z,92.28
2022-11-16T22:37:04.409Z,91.91
2022-11-16T22:39:30.796Z,92.26
2022-11-16T22:41:57.136Z,92.54
2022-11-16T22:44:23.459Z,92.53
2022-11-16T22:46:49.777Z,91.72
2022-11-16T22:49:16.120Z,92.63
2022-11-16T22:51:42.457Z,93.10
2022-11-16T22:54:10.355Z,92.95
2022-11-16T22:56:37.313Z,92.87
2022-11-16T22:59:03.983Z,92.81
2022-11-16T23:01:30.344Z,93.23
2022-11-16T23:03:56.804Z,93.64
2022-11-16T23:06:23.354Z,94.40
2022-11-16T23:08:50.418Z,94.61
2022-11-16T23:11:21.815Z,94.55
2022-11-16T23:13:48.988Z,94.52
2022-11-16T23:16:15.289Z,94.97
2022-11-16T23:18:41.622Z,95.58
2022-11-16T23:21:08.764Z,95.59
2022-11-16T23:23:35.394Z,95.47
2022-11-16T23:26:05.085Z,95.62
2022-11-16T23:28:31.394Z,94.94
2022-11-16T23:30:57.787Z,95.83
2022-11-16T23:33:24.139Z,96.17
2022-11-16T23:35:50.454Z,97.00
2022-11-16T23:38:16.742Z,96.14
2022-11-16T23:40:43.098Z,96.01
2022-11-16T23:43:10.548Z,95.89
2022-11-16T23:45:37.818Z,95.84
2022-11-16T23:48:04.870Z,96.10
2022-11-16T23:50:31.380Z,95.68
2022-11-16T23:52:57.773Z,95.54
2022-11-16T23:55:24.132Z,95.51
2022-11-16T23:57:50.912Z,95.48
